This is the latest recevied weather packets stored in our database for station/object K4NSC-13. If no packets are shown the sender has not sent any weather packets the latest 10 day(s).
| Time | Temp. | Humidity | Pressure | Rain* | Wind** | Luminosity | Snow |
|---|---|---|---|---|---|---|---|
| 1778046319 | 17.78° C | 81% | 1015.7 hPa | 0 mm | - | 0 W/m² | - |
| 1778045128 | 17.78° C | 80% | 1015.6 hPa | 0 mm | - | 0 W/m² | - |
| 1778044528 | 17.78° C | 80% | 1015.4 hPa | 0 mm | - | 0 W/m² | - |
| 1778041530 | 18.33° C | 78% | 1015.6 hPa | 0 mm | - | 0 W/m² | - |
| 1778036132 | 20° C | 73% | 1015.2 hPa | 0 mm | - | 0 W/m² | - |
| 1778035523 | 20° C | 71% | 1015.2 hPa | 0 mm | - | 0 W/m² | - |
| 1778034322 | 20.56° C | 68% | 1015.4 hPa | 0 mm | - | 0 W/m² | - |
| 1778024153 | 26.67° C | 44% | 1013.2 hPa | 0 mm | - | 33 W/m² | - |
| 1778019919 | 27.22° C | 42% | 1013.2 hPa | 0 mm | - | 80 W/m² | - |
| 1778015120 | 28.33° C | 42% | 1013.6 hPa | 0 mm | - | 292 W/m² | - |
| 1778012721 | 27.22° C | 43% | 1014 hPa | 0 mm | - | 731 W/m² | - |
| 1778007322 | 27.78° C | 43% | 1015.3 hPa | 0 mm | - | 927 W/m² | - |
| 1778004922 | 27.78° C | 43% | 1015.8 hPa | 0 mm | - | 1015 W/m² | - |
| 1778003723 | 26.67° C | 45% | 1015.6 hPa | 0 mm | - | 998 W/m² | - |
| 1778002522 | 26.67° C | 46% | 1015.7 hPa | 0 mm | - | 535 W/m² | - |
| 1778001324 | 26.11° C | 49% | 1016 hPa | 0 mm | - | 814 W/m² | - |
| 1778000123 | 26.11° C | 49% | 1016.5 hPa | 0 mm | - | 905 W/m² | - |
| 1777999523 | 25.56° C | 50% | 1016.6 hPa | 0 mm | - | 1007 W/m² | - |
| 1777998924 | 25.56° C | 47% | 1016.7 hPa | 0 mm | - | 732 W/m² | - |
| 1777996524 | 25° C | 57% | 1017.1 hPa | 0 mm | - | 925 W/m² | - |
| 1777995919 | 24.44° C | 60% | 1017.3 hPa | 0 mm | - | 894 W/m² | - |
| 1777994718 | 23.89° C | 62% | 1017.3 hPa | 0 mm | - | 842 W/m² | - |
| 1777992919 | 22.78° C | 65% | 1017.3 hPa | 0 mm | - | 779 W/m² | - |
| 1777991140 | 22.78° C | 66% | 1017.4 hPa | 0 mm | - | 693 W/m² | - |
| 1777988720 | 21.11° C | 70% | 1017.5 hPa | 0 mm | - | 562 W/m² | - |
* Rain latest hour (hover to see other rain measurements)
** Current wind speed in m/s (hover to see current wind gust speed)